Station Historical Data
Daily Summary for November 6, 2017 Units:  Metric    English   Both
« Previous Day
Next Day »
Daily Weekly Monthly Yearly Custom
  High: Low: Average:
Temperature: 15.6 °C 2.3 °C 8.1 °C
Dew Point: 13.8 °C -1.2 °C 4.3 °C
Humidity: 91% 59% 78%
Wind Speed: 19.3km/h 0km/h 4.2km/h
Wind Gust: 24.1km/h - -
Wind- - WNW
Pressure: 1024.6 hPa 1007.3 hPa -
Precipitation: 0 mm    
Historical Graphs
 
 
Tabular Data for November 6, 2017
Time Temperature Dew Point Pressure Wind Wind Speed Wind Gust Humidity Rainfall Rate (Hourly)
00:04 15.2 °C 13.6 °C 1007.3 hPa SSW 6.4 km/h 11.3 km/h 90% 1.27 mm
00:09 15.2 °C 13.6 °C 1007.3 hPa SSW 3.2 km/h 12.9 km/h 90% 1.27 mm
00:14 15.2 °C 13.6 °C 1007.3 hPa SSW 9.7 km/h 16.1 km/h 90% 1.27 mm
00:19 15.3 °C 13.7 °C 1007.3 hPa SSW 8 km/h 16.1 km/h 90% 1.27 mm
00:24 15.3 °C 13.7 °C 1007.3 hPa SSW 8 km/h 16.1 km/h 90% 1.02 mm
00:29 15.4 °C 13.7 °C 1007.3 hPa SSW 6.4 km/h 12.9 km/h 89% 0.25 mm
00:34 15.4 °C 13.7 °C 1007.3 hPa SW 6.4 km/h 11.3 km/h 89% 0.25 mm
00:39 15.5 °C 13.7 °C 1007.3 hPa SW 6.4 km/h 11.3 km/h 89% 0.25 mm
00:44 15.6 °C 13.7 °C 1007.3 hPa SSW 6.4 km/h 16.1 km/h 89% 0.25 mm
00:49 15.6 °C 13.7 °C 1007.3 hPa SW 6.4 km/h 16.1 km/h 89% 0 mm
00:54 15.6 °C 13.8 °C 1007.3 hPa SSW 6.4 km/h 19.3 km/h 89% 0 mm
00:59 15.6 °C 13.6 °C 1007.3 hPa SSW 4.8 km/h 11.3 km/h 88% 0 mm
01:04 15.6 °C 13.6 °C 1007.3 hPa WSW 11.3 km/h 16.1 km/h 88% 0 mm
01:09 15.6 °C 13.6 °C 1007.3 hPa SW 3.2 km/h 12.9 km/h 88% 0.25 mm
01:14 15.6 °C 13.6 °C 1007.3 hPa SW 9.7 km/h 14.5 km/h 88% 0.25 mm
01:19 15.5 °C 13.5 °C 1007.3 hPa SW 6.4 km/h 11.3 km/h 88% 0.25 mm
01:24 15.4 °C 13.4 °C 1007.3 hPa WSW 6.4 km/h 14.5 km/h 88% 0.51 mm
01:29 15.4 °C 13.4 °C 1007.7 hPa WSW 6.4 km/h 14.5 km/h 88% 0.51 mm
01:34 15.3 °C 13.6 °C 1007.7 hPa West 6.4 km/h 11.3 km/h 89% 0.51 mm
01:39 15.3 °C 13.5 °C 1007.7 hPa WSW 6.4 km/h 12.9 km/h 89% 0.76 mm
01:44 15.3 °C 13.5 °C 1007.7 hPa WSW 6.4 km/h 14.5 km/h 89% 1.02 mm
01:49 15.2 °C 13.4 °C 1007.7 hPa SW 3.2 km/h 12.9 km/h 89% 1.02 mm
01:54 15.1 °C 13.3 °C 1007.7 hPa WSW 3.2 km/h 9.7 km/h 89% 1.27 mm
01:59 15.1 °C 13.5 °C 1007.7 hPa WSW 4.8 km/h 11.3 km/h 90% 1.52 mm
02:04 15.1 °C 13.4 °C 1008 hPa SW 9.7 km/h 19.3 km/h 90% 1.78 mm
02:09 15 °C 13.4 °C 1008 hPa WSW 6.4 km/h 17.7 km/h 90% 1.52 mm
02:14 14.6 °C 12.8 °C 1008.7 hPa West 6.4 km/h 19.3 km/h 89% 1.78 mm
02:19 13.8 °C 11.9 °C 1008.7 hPa NW 6.4 km/h 19.3 km/h 88% 1.78 mm
02:24 13.1 °C 11.1 °C 1009 hPa NNW 4.8 km/h 22.5 km/h 88% 1.78 mm
02:29 12.7 °C 10.8 °C 1009 hPa WNW 6.4 km/h 11.3 km/h 88% 1.78 mm
02:34 12.5 °C 10.7 °C 1009 hPa NW 4.8 km/h 14.5 km/h 89% 1.78 mm
02:39 12.3 °C 10.6 °C 1009 hPa NW 6.4 km/h 17.7 km/h 89% 1.52 mm
02:44 12.1 °C 10.3 °C 1009 hPa NW 6.4 km/h 17.7 km/h 89% 1.52 mm
02:49 11.9 °C 10.2 °C 1009 hPa NW 6.4 km/h 12.9 km/h 89% 1.52 mm
02:54 11.8 °C 10.1 °C 1009 hPa NW 4.8 km/h 12.9 km/h 89% 1.27 mm
02:59 11.7 °C 9.9 °C 1009 hPa NW 12.9 km/h 14.5 km/h 89% 1.27 mm
03:04 11.6 °C 10 °C 1009 hPa NW 6.4 km/h 14.5 km/h 90% 1.02 mm
03:09 11.6 °C 9.9 °C 1009 hPa WNW 3.2 km/h 12.9 km/h 90% 1.02 mm
03:14 11.5 °C 9.9 °C 1009 hPa NNW 3.2 km/h 8 km/h 90% 0.76 mm
03:19 11.4 °C 9.8 °C 1009.4 hPa NW 1.6 km/h 9.7 km/h 90% 0.76 mm
03:24 11.3 °C 9.7 °C 1009.4 hPa WNW 3.2 km/h 11.3 km/h 90% 0.51 mm
03:29 11.2 °C 9.7 °C 1009.4 hPa North 3.2 km/h 9.7 km/h 90% 0.51 mm
03:34 11.2 °C 9.6 °C 1009.4 hPa Calm   9.7 km/h 90% 0.51 mm
03:39 11.1 °C 9.6 °C 1009.7 hPa NW 1.6 km/h 9.7 km/h 90% 0.51 mm
03:44 11.1 °C 9.5 °C 1009.7 hPa NW 1.6 km/h 6.4 km/h 90% 0.25 mm
03:49 11.1 °C 9.5 °C 1010 hPa WNW 3.2 km/h 8 km/h 90% 0.25 mm
03:54 11 °C 9.4 °C 1009.7 hPa WNW 1.6 km/h 4.8 km/h 90% 0.76 mm
03:59 10.9 °C 9.4 °C 1010 hPa Calm   8 km/h 90% 0.51 mm
04:04 10.9 °C 9.3 °C 1010 hPa Calm   6.4 km/h 90% 0.51 mm
04:09 10.8 °C 9.3 °C 1010 hPa WNW 4.8 km/h 11.3 km/h 90% 0.51 mm
04:14 10.7 °C 9.1 °C 1010.4 hPa WNW 6.4 km/h 11.3 km/h 90% 0.51 mm
04:19 10.6 °C 9 °C 1010.4 hPa WNW 4.8 km/h 11.3 km/h 90% 0.76 mm
04:24 10.6 °C 9 °C 1010.4 hPa WNW 3.2 km/h 9.7 km/h 90% 0.76 mm
04:29 10.5 °C 8.9 °C 1010.4 hPa NW 1.6 km/h 6.4 km/h 90% 0.76 mm
04:34 10.4 °C 8.9 °C 1010.7 hPa Calm   4.8 km/h 90% 0.76 mm
04:39 10.4 °C 8.9 °C 1010.7 hPa Calm   3.2 km/h 90% 0.76 mm
04:44 10.4 °C 8.9 °C 1010.7 hPa Calm   3.2 km/h 90% 1.02 mm
04:49 10.4 °C 9.1 °C 1010.7 hPa Calm   4.8 km/h 91% 1.02 mm
04:54 10.4 °C 9.1 °C 1011.1 hPa WNW 1.6 km/h 8 km/h 91% 0.51 mm
04:59 10.4 °C 9 °C 1011.1 hPa NNW 3.2 km/h 11.3 km/h 91% 0.51 mm
05:04 10.3 °C 8.9 °C 1011.1 hPa WNW 12.9 km/h 17.7 km/h 91% 0.76 mm
05:09 10.3 °C 8.9 °C 1011.4 hPa West 6.4 km/h 12.9 km/h 91% 0.76 mm
05:14 10.2 °C 8.8 °C 1011.4 hPa West 6.4 km/h 12.9 km/h 91% 0.76 mm
05:19 10.1 °C 8.7 °C 1011.7 hPa WNW 6.4 km/h 12.9 km/h 91% 0.51 mm
05:24 10.1 °C 8.7 °C 1011.7 hPa WNW 4.8 km/h 11.3 km/h 91% 0.51 mm
05:29 9.9 °C 8.6 °C 1011.7 hPa NNW 4.8 km/h 16.1 km/h 91% 0.51 mm
05:34 9.9 °C 8.5 °C 1011.7 hPa NW 1.6 km/h 11.3 km/h 91% 0.51 mm
05:39 9.8 °C 8.4 °C 1012.1 hPa WNW 1.6 km/h 16.1 km/h 91% 0.51 mm
05:44 9.8 °C 8.4 °C 1012.1 hPa NW 1.6 km/h 8 km/h 91% 0.25 mm
05:49 9.8 °C 8.4 °C 1012.1 hPa NW 3.2 km/h 8 km/h 91% 0.25 mm
05:54 9.8 °C 8.4 °C 1012.1 hPa NW 4.8 km/h 16.1 km/h 91% 0.51 mm
05:59 9.6 °C 8.1 °C 1012.4 hPa NW 6.4 km/h 16.1 km/h 90% 0.51 mm
06:04 9.2 °C 7.7 °C 1012.4 hPa NW 6.4 km/h 20.9 km/h 90% 0.25 mm
06:09 8.8 °C 7.3 °C 1012.4 hPa NW 8 km/h 20.9 km/h 90% 0.25 mm
06:14 8.6 °C 7.1 °C 1012.8 hPa NW 9.7 km/h 14.5 km/h 90% 0.25 mm
06:19 8.4 °C 6.9 °C 1012.8 hPa NW 4.8 km/h 14.5 km/h 90% 0.25 mm
06:24 8.3 °C 6.8 °C 1012.8 hPa NW 6.4 km/h 16.1 km/h 90% 0.25 mm
06:29 8.3 °C 6.7 °C 1012.8 hPa NW 6.4 km/h 11.3 km/h 90% 0.25 mm
06:34 8.3 °C 6.7 °C 1013.1 hPa NNW 1.6 km/h 11.3 km/h 90% 0.25 mm
06:39 8.2 °C 6.6 °C 1013.1 hPa Calm   12.9 km/h 90% 0.25 mm
06:44 8.2 °C 6.6 °C 1013.1 hPa NW 4.8 km/h 9.7 km/h 90% 0.51 mm
06:49 8.2 °C 6.6 °C 1013.1 hPa NW 1.6 km/h 12.9 km/h 90% 0.51 mm
06:54 8.1 °C 6.6 °C 1013.4 hPa NW 4.8 km/h 12.9 km/h 90% 0.25 mm
06:59 8.1 °C 6.6 °C 1013.4 hPa NW 4.8 km/h 11.3 km/h 90% 0.25 mm
07:04 8.1 °C 6.6 °C 1013.4 hPa NW 4.8 km/h 11.3 km/h 90% 0.25 mm
07:09 8.1 °C 6.5 °C 1013.8 hPa NW 4.8 km/h 12.9 km/h 90% 0.25 mm
07:14 8.1 °C 6.5 °C 1013.8 hPa NW 4.8 km/h 14.5 km/h 90% 0.25 mm
07:19 8.1 °C 6.5 °C 1013.8 hPa NW 6.4 km/h 14.5 km/h 90% 0.25 mm
07:24 8.1 °C 6.5 °C 1013.8 hPa NW 4.8 km/h 11.3 km/h 90% 0.25 mm
07:29 8.1 °C 6.5 °C 1014.1 hPa NW 4.8 km/h 14.5 km/h 90% 0.25 mm
07:34 7.9 °C 6.3 °C 1014.1 hPa NNW 6.4 km/h 16.1 km/h 90% 0.25 mm
07:39 7.7 °C 6.2 °C 1014.4 hPa NNW 9.7 km/h 14.5 km/h 90% 0.25 mm
07:44 7.4 °C 5.8 °C 1014.8 hPa NNE 4.8 km/h 16.1 km/h 90% 0 mm
07:49 7.2 °C 5.6 °C 1014.8 hPa NNW 4.8 km/h 12.9 km/h 90% 0 mm
07:54 7.1 °C 5.5 °C 1014.8 hPa NNW 3.2 km/h 16.1 km/h 90% 0 mm
07:59 7.1 °C 5.5 °C 1014.8 hPa NNW 4.8 km/h 16.1 km/h 90% 0 mm
08:04 7 °C 5.4 °C 1015.1 hPa NNW 4.8 km/h 14.5 km/h 90% 0.25 mm
08:09 7 °C 5.4 °C 1015.1 hPa NNW 6.4 km/h 14.5 km/h 90% 0.25 mm
08:14 6.9 °C 5.4 °C 1015.1 hPa NNW 11.3 km/h 12.9 km/h 90% 0.25 mm
08:19 6.9 °C 5.4 °C 1015.1 hPa NW 3.2 km/h 16.1 km/h 90% 0.25 mm
08:24 6.9 °C 5.5 °C 1015.5 hPa NNW 3.2 km/h 4.8 km/h 91% 0.25 mm
08:29 6.9 °C 5.5 °C 1015.5 hPa Calm   6.4 km/h 91% 0.25 mm
08:34 6.9 °C 5.6 °C 1015.8 hPa NNW 1.6 km/h 6.4 km/h 91% 0.25 mm
08:39 6.9 °C 5.5 °C 1015.8 hPa NW 3.2 km/h 9.7 km/h 91% 0.25 mm
08:44 6.9 °C 5.5 °C 1015.8 hPa NW 4.8 km/h 11.3 km/h 91% 0.25 mm
08:49 6.9 °C 5.6 °C 1015.8 hPa NW 3.2 km/h 11.3 km/h 91% 0.25 mm
08:54 6.9 °C 5.4 °C 1015.8 hPa NNW 4.8 km/h 20.9 km/h 90% 0.25 mm
08:59 6.8 °C 5.3 °C 1015.8 hPa NW 9.7 km/h 14.5 km/h 90% 0.25 mm
09:04 6.7 °C 5.2 °C 1015.8 hPa NNW 6.4 km/h 14.5 km/h 90% 0 mm
09:09 6.8 °C 5.3 °C 1015.8 hPa NNW 6.4 km/h 14.5 km/h 90% 0 mm
09:14 6.7 °C 5.2 °C 1016.1 hPa NNW 6.4 km/h 14.5 km/h 90% 0 mm
09:19 6.7 °C 5.1 °C 1016.1 hPa NNW 6.4 km/h 14.5 km/h 89% 0 mm
09:24 6.7 °C 5.1 °C 1016.5 hPa NNW 3.2 km/h 14.5 km/h 89% 0 mm
09:29 6.7 °C 5.1 °C 1016.5 hPa NNW 1.6 km/h 9.7 km/h 89% 0 mm
09:34 6.8 °C 5.2 °C 1016.5 hPa WNW 4.8 km/h 17.7 km/h 89% 0 mm
09:39 6.7 °C 4.9 °C 1016.5 hPa NNW 3.2 km/h 16.1 km/h 88% 0 mm
09:44 6.7 °C 4.8 °C 1016.8 hPa NNW 6.4 km/h 16.1 km/h 88% 0 mm
09:49 6.7 °C 4.7 °C 1016.8 hPa NNW 4.8 km/h 16.1 km/h 87% 0 mm
09:54 6.7 °C 4.7 °C 1016.8 hPa NNW 4.8 km/h 14.5 km/h 87% 0 mm
09:59 6.7 °C 4.6 °C 1017.2 hPa NNW 4.8 km/h 14.5 km/h 86% 0 mm
10:04 6.7 °C 4.6 °C 1017.2 hPa NW 4.8 km/h 16.1 km/h 86% 0 mm
10:09 6.8 °C 4.5 °C 1017.5 hPa NNW 3.2 km/h 11.3 km/h 85% 0 mm
10:19 6.8 °C 4.2 °C 1017.2 hPa NW 6.4 km/h 17.7 km/h 83% 0 mm
10:24 6.8 °C 4 °C 1017.5 hPa NNW 8 km/h 19.3 km/h 82% 0 mm
10:29 7 °C 3.9 °C 1017.5 hPa NW 3.2 km/h 17.7 km/h 81% 0 mm
10:34 7.1 °C 3.8 °C 1017.5 hPa NNW 4.8 km/h 20.9 km/h 80% 0 mm
10:39 7.1 °C 3.7 °C 1017.5 hPa NW 19.3 km/h 24.1 km/h 79% 0 mm
10:44 6.9 °C 3.2 °C 1017.5 hPa NNW 8 km/h 19.3 km/h 77% 0 mm
10:49 6.9 °C 3.2 °C 1017.8 hPa NW 9.7 km/h 19.3 km/h 77% 0 mm
10:54 7 °C 3.1 °C 1017.8 hPa NW 8 km/h 17.7 km/h 76% 0 mm
10:59 7.1 °C 2.7 °C 1017.8 hPa NW 8 km/h 22.5 km/h 74% 0 mm
11:04 7.1 °C 2.6 °C 1017.8 hPa NNW 6.4 km/h 22.5 km/h 73% 0 mm
11:09 7.3 °C 2.8 °C 1017.8 hPa NW 4.8 km/h 17.7 km/h 73% 0 mm
11:14 7.5 °C 2.9 °C 1018.2 hPa West 3.2 km/h 9.7 km/h 73% 0 mm
11:19 7.4 °C 2.7 °C 1018.2 hPa NNW 4.8 km/h 17.7 km/h 72% 0 mm
11:24 7.7 °C 3.1 °C 1018.2 hPa NW 8 km/h 17.7 km/h 73% 0 mm
11:29 7.7 °C 3 °C 1018.2 hPa NW 6.4 km/h 14.5 km/h 72% 0 mm
11:34 7.7 °C 2.8 °C 1018.5 hPa West 3.2 km/h 14.5 km/h 71% 0 mm
11:39 7.8 °C 2.8 °C 1018.5 hPa NNW 3.2 km/h 12.9 km/h 71% 0 mm
11:44 7.7 °C 2.8 °C 1018.5 hPa WNW 4.8 km/h 16.1 km/h 71% 0 mm
11:49 8 °C 3.1 °C 1018.5 hPa NNE 4.8 km/h 17.7 km/h 71% 0 mm
11:54 8.1 °C 3.1 °C 1018.5 hPa NW 8 km/h 17.7 km/h 71% 0 mm
11:59 7.8 °C 2.7 °C 1018.5 hPa NW 8 km/h 19.3 km/h 70% 0 mm
12:04 7.7 °C 2.4 °C 1018.5 hPa NW 8 km/h 19.3 km/h 69% 0 mm
12:09 7.6 °C 2.4 °C 1018.8 hPa NW 8 km/h 17.7 km/h 70% 0 mm
12:14 7.7 °C 2.1 °C 1018.8 hPa NW 11.3 km/h 17.7 km/h 68% 0 mm
12:19 7.8 °C 2.2 °C 1018.5 hPa WSW 6.4 km/h 17.7 km/h 68% 0 mm
12:24 8.2 °C 3.1 °C 1018.5 hPa NW 4.8 km/h 11.3 km/h 70% 0 mm
12:29 8.5 °C 2.7 °C 1018.8 hPa WNW 6.4 km/h 16.1 km/h 67% 0 mm
12:34 8.7 °C 2.5 °C 1018.8 hPa NW 8 km/h 16.1 km/h 65% 0 mm
12:39 9.2 °C 3 °C 1018.8 hPa NNW 8 km/h 16.1 km/h 65% 0 mm
12:44 8.6 °C 2.2 °C 1019.2 hPa NW 12.9 km/h 19.3 km/h 64% 0 mm
12:49 8.6 °C 2.8 °C 1019.2 hPa Calm   19.3 km/h 67% 0 mm
12:54 8.6 °C 2.2 °C 1019.2 hPa WNW 16.1 km/h 17.7 km/h 64% 0 mm
12:59 8.3 °C 1.9 °C 1019.5 hPa West 9.7 km/h 14.5 km/h 64% 0 mm
13:04 8.1 °C 1.9 °C 1019.5 hPa NW 8 km/h 16.1 km/h 65% 0 mm
13:09 8 °C 2.1 °C 1019.5 hPa NW 6.4 km/h 14.5 km/h 66% 0 mm
13:14 8.2 °C 2.6 °C 1019.5 hPa NW 6.4 km/h 14.5 km/h 68% 0 mm
13:19 8.3 °C 2.6 °C 1019.5 hPa NW 4.8 km/h 12.9 km/h 67% 0 mm
13:24 7.9 °C 1.8 °C 1019.5 hPa NW 4.8 km/h 12.9 km/h 65% 0 mm
13:29 7.9 °C 2 °C 1019.5 hPa NNW 4.8 km/h 12.9 km/h 66% 0 mm
13:34 8.3 °C 2.1 °C 1019.5 hPa WNW 6.4 km/h 16.1 km/h 65% 0 mm
13:39 8.5 °C 2.1 °C 1019.5 hPa NW 9.7 km/h 16.1 km/h 64% 0 mm
13:44 8.4 °C 2.2 °C 1019.5 hPa NNW 4.8 km/h 17.7 km/h 65% 0 mm
13:49 8.4 °C 2.4 °C 1019.5 hPa NNW 8 km/h 12.9 km/h 66% 0 mm
13:54 8.2 °C 2.4 °C 1019.9 hPa NW 4.8 km/h 16.1 km/h 67% 0 mm
13:59 8.4 °C 2.4 °C 1019.5 hPa North 8 km/h 12.9 km/h 66% 0 mm
14:04 8 °C 2.1 °C 1019.9 hPa NW 4.8 km/h 12.9 km/h 66% 0 mm
14:09 7.7 °C 1.8 °C 1019.9 hPa NW 4.8 km/h 11.3 km/h 66% 0 mm
14:14 8.1 °C 1.9 °C 1019.9 hPa NW 6.4 km/h 16.1 km/h 65% 0 mm
14:19 8.9 °C 2.4 °C 1019.9 hPa NW 4.8 km/h 16.1 km/h 64% 0 mm
14:24 8.3 °C 1.9 °C 1019.9 hPa NW 4.8 km/h 11.3 km/h 64% 0 mm
14:29 7.8 °C 1.7 °C 1019.9 hPa North 6.4 km/h 12.9 km/h 65% 0 mm
14:34 7.4 °C 1.5 °C 1019.9 hPa North 1.6 km/h 12.9 km/h 66% 0 mm
14:39 8.2 °C 2.2 °C 1019.9 hPa NW 4.8 km/h 12.9 km/h 66% 0 mm
14:44 8.8 °C 2.1 °C 1020.2 hPa NW 6.4 km/h 12.9 km/h 63% 0 mm
14:49 8.8 °C 1.9 °C 1020.2 hPa NNW 6.4 km/h 16.1 km/h 62% 0 mm
14:54 8.8 °C 2.1 °C 1020.2 hPa Calm   11.3 km/h 63% 0 mm
14:59 8.8 °C 1.9 °C 1020.2 hPa NNW 3.2 km/h 9.7 km/h 62% 0 mm
15:04 8.6 °C 1.7 °C 1020.5 hPa NNW 4.8 km/h 12.9 km/h 62% 0 mm
15:09 8.6 °C 1.5 °C 1020.5 hPa NW 4.8 km/h 12.9 km/h 61% 0 mm
15:14 8.1 °C 1 °C 1020.5 hPa NW 4.8 km/h 12.9 km/h 61% 0 mm
15:19 7.7 °C 0.7 °C 1020.9 hPa NNW 6.4 km/h 14.5 km/h 61% 0 mm
15:24 7.8 °C 0.9 °C 1020.9 hPa NNW 6.4 km/h 14.5 km/h 62% 0 mm
15:29 8.2 °C 1.1 °C 1020.9 hPa NNW 4.8 km/h 11.3 km/h 61% 0 mm
15:34 8.3 °C 1 °C 1020.9 hPa WNW 9.7 km/h 14.5 km/h 60% 0 mm
15:39 8.3 °C 0.8 °C 1020.9 hPa NNW 3.2 km/h 14.5 km/h 59% 0 mm
15:44 8.2 °C 0.8 °C 1020.9 hPa NW 6.4 km/h 14.5 km/h 60% 0 mm
15:49 7.8 °C 1 °C 1021.2 hPa NNW 6.4 km/h 14.5 km/h 62% 0 mm
15:54 7.6 °C 0.6 °C 1021.2 hPa NNW 6.4 km/h 16.1 km/h 61% 0 mm
15:59 7.6 °C 0.8 °C 1021.2 hPa NW 4.8 km/h 14.5 km/h 62% 0 mm
16:04 7.6 °C 0.7 °C 1021.2 hPa NNW 4.8 km/h 14.5 km/h 62% 0 mm
16:09 7.3 °C 0.5 °C 1021.2 hPa WNW 4.8 km/h 8 km/h 62% 0 mm
16:14 7.1 °C 0.1 °C 1021.2 hPa NNW 3.2 km/h 9.7 km/h 61% 0 mm
16:19 7 °C 0.2 °C 1021.6 hPa NW 4.8 km/h 9.7 km/h 62% 0 mm
16:24 7.1 °C 0.3 °C 1021.6 hPa NW 4.8 km/h 11.3 km/h 62% 0 mm
16:29 7 °C 0.4 °C 1021.6 hPa NW 4.8 km/h 11.3 km/h 63% 0 mm
16:34 6.9 °C 0.4 °C 1021.6 hPa NNW 3.2 km/h 9.7 km/h 63% 0 mm
16:39 6.9 °C 0.8 °C 1021.6 hPa NNW 3.2 km/h 8 km/h 65% 0 mm
16:44 6.8 °C 0.9 °C 1021.6 hPa Calm   8 km/h 66% 0 mm
16:49 6.7 °C 0.8 °C 1021.9 hPa NW 3.2 km/h 8 km/h 66% 0 mm
16:54 6.7 °C 0.8 °C 1021.9 hPa NNW 1.6 km/h 8 km/h 66% 0 mm
16:59 6.6 °C 0.7 °C 1021.9 hPa NNW 3.2 km/h 6.4 km/h 66% 0 mm
17:04 6.6 °C 0.9 °C 1021.9 hPa NNW 1.6 km/h 4.8 km/h 67% 0 mm
17:09 6.5 °C 0.8 °C 1021.9 hPa Calm   6.4 km/h 67% 0 mm
17:14 6.4 °C 0.9 °C 1021.9 hPa North 3.2 km/h 3.2 km/h 68% 0 mm
17:19 6.4 °C 0.7 °C 1022.2 hPa NNW 1.6 km/h 4.8 km/h 67% 0 mm
17:24 6.4 °C 0.7 °C 1022.2 hPa WNW 1.6 km/h 6.4 km/h 67% 0 mm
17:29 6.4 °C 0.7 °C 1022.2 hPa WNW 1.6 km/h 6.4 km/h 67% 0 mm
17:34 6.4 °C 0.7 °C 1022.2 hPa NNW 1.6 km/h 6.4 km/h 67% 0 mm
17:39 6.4 °C 0.7 °C 1022.6 hPa NNW 3.2 km/h 11.3 km/h 67% 0 mm
17:44 6.4 °C 0.7 °C 1022.6 hPa Calm   6.4 km/h 67% 0 mm
17:49 6.4 °C 0.9 °C 1022.6 hPa Calm   3.2 km/h 68% 0 mm
17:54 6.3 °C 0.8 °C 1022.9 hPa North 4.8 km/h 6.4 km/h 68% 0 mm
17:59 6.3 °C 0.8 °C 1022.9 hPa Calm   6.4 km/h 68% 0 mm
18:04 6.3 °C 0.8 °C 1022.9 hPa North 3.2 km/h 6.4 km/h 68% 0 mm
18:09 6.3 °C 0.8 °C 1022.9 hPa NNE 3.2 km/h 6.4 km/h 68% 0 mm
18:14 6.3 °C 1 °C 1022.9 hPa NNE 1.6 km/h 6.4 km/h 69% 0 mm
18:19 6.3 °C 1 °C 1023.2 hPa North 3.2 km/h 9.7 km/h 69% 0 mm
18:24 6.2 °C 0.7 °C 1023.2 hPa North 3.2 km/h 11.3 km/h 68% 0 mm
18:29 6.1 °C 0.7 °C 1023.2 hPa North 4.8 km/h 9.7 km/h 68% 0 mm
18:34 6 °C 0.6 °C 1023.2 hPa NNW 3.2 km/h 9.7 km/h 68% 0 mm
18:39 5.9 °C 0.4 °C 1023.2 hPa Calm   6.4 km/h 68% 0 mm
18:44 5.8 °C 0.3 °C 1023.6 hPa NNW 6.4 km/h 8 km/h 68% 0 mm
18:49 5.8 °C 0.3 °C 1023.6 hPa Calm   6.4 km/h 68% 0 mm
18:54 5.8 °C 0.5 °C 1023.6 hPa NNW 3.2 km/h 8 km/h 69% 0 mm
18:59 5.8 °C 0.7 °C 1023.6 hPa NNW 1.6 km/h 4.8 km/h 70% 0 mm
19:04 5.7 °C 0.4 °C 1023.9 hPa Calm   6.4 km/h 69% 0 mm
19:09 5.7 °C 0.6 °C 1023.9 hPa NNW 1.6 km/h 6.4 km/h 70% 0 mm
19:14 5.7 °C 0.4 °C 1023.9 hPa NW 1.6 km/h 8 km/h 69% 0 mm
19:19 5.7 °C 0.4 °C 1023.9 hPa NW 1.6 km/h 8 km/h 69% 0 mm
19:24 5.6 °C 0.2 °C 1023.9 hPa NNW 1.6 km/h 8 km/h 68% 0 mm
19:29 5.6 °C 0.1 °C 1023.9 hPa NNW 4.8 km/h 9.7 km/h 68% 0 mm
19:34 5.6 °C 0.3 °C 1023.9 hPa North 3.2 km/h 9.7 km/h 69% 0 mm
19:39 5.5 °C 0.3 °C 1023.9 hPa North 3.2 km/h 9.7 km/h 69% 0 mm
19:44 5.4 °C 0 °C 1023.9 hPa North 1.6 km/h 12.9 km/h 68% 0 mm
19:49 5.4 °C -0.1 °C 1023.9 hPa NNW 6.4 km/h 9.7 km/h 68% 0 mm
19:54 5.3 °C -0.1 °C 1023.9 hPa ENE 4.8 km/h 9.7 km/h 68% 0 mm
19:59 5.3 °C 0.1 °C 1023.9 hPa NNW 3.2 km/h 12.9 km/h 69% 0 mm
20:04 5.3 °C -0.2 °C 1023.9 hPa NW 3.2 km/h 11.3 km/h 68% 0 mm
20:09 5.2 °C -0.2 °C 1023.9 hPa NNW 1.6 km/h 8 km/h 68% 0 mm
20:14 5.2 °C -0.2 °C 1023.9 hPa NNW 3.2 km/h 9.7 km/h 68% 0 mm
20:19 5.2 °C -0.3 °C 1023.9 hPa NNW 3.2 km/h 9.7 km/h 68% 0 mm
20:24 5.2 °C -0.3 °C 1023.9 hPa NNW 3.2 km/h 11.3 km/h 68% 0 mm
20:29 5.2 °C -0.3 °C 1023.9 hPa NNW 3.2 km/h 11.3 km/h 68% 0 mm
20:34 5.2 °C -0.3 °C 1024.3 hPa NNW 3.2 km/h 8 km/h 68% 0 mm
20:39 5.1 °C -0.3 °C 1024.3 hPa NNW 3.2 km/h 8 km/h 68% 0 mm
20:44 5.1 °C -0.3 °C 1023.9 hPa NNW 3.2 km/h 8 km/h 68% 0 mm
20:49 5.1 °C -0.4 °C 1023.9 hPa Calm   6.4 km/h 68% 0 mm
20:54 5 °C -0.2 °C 1023.9 hPa NNW 1.6 km/h 6.4 km/h 69% 0 mm
20:59 4.9 °C -0.3 °C 1023.9 hPa NNW 1.6 km/h 6.4 km/h 69% 0 mm
21:04 4.8 °C -0.4 °C 1023.9 hPa Calm   6.4 km/h 69% 0 mm
21:09 4.8 °C -0.4 °C 1023.9 hPa North 1.6 km/h 6.4 km/h 69% 0 mm
21:14 4.6 °C -0.6 °C 1023.9 hPa Calm   4.8 km/h 69% 0 mm
21:19 4.4 °C -0.6 °C 1023.9 hPa Calm   6.4 km/h 70% 0 mm
21:24 4.2 °C -0.8 °C 1023.9 hPa Calm   4.8 km/h 70% 0 mm
21:29 4 °C -0.8 °C 1023.9 hPa North 1.6 km/h 6.4 km/h 71% 0 mm
21:34 3.8 °C -0.8 °C 1023.9 hPa Calm   6.4 km/h 72% 0 mm
21:39 3.6 °C -0.9 °C 1023.9 hPa Calm     72% 0 mm
21:44 3.4 °C -0.9 °C 1023.9 hPa Calm     73% 0 mm
21:49 3.3 °C -0.9 °C 1023.9 hPa Calm     74% 0 mm
21:54 3.3 °C -0.9 °C 1024.3 hPa Calm   4.8 km/h 74% 0 mm
21:59 3.3 °C -0.9 °C 1024.3 hPa Calm   4.8 km/h 74% 0 mm
22:04 3.3 °C -0.9 °C 1024.3 hPa Calm     74% 0 mm
22:09 3.3 °C -0.9 °C 1024.3 hPa Calm     74% 0 mm
22:19 2.9 °C -1.1 °C 1024.3 hPa Calm     75% 0 mm
22:24 2.8 °C -1.2 °C 1024.3 hPa Calm     75% 0 mm
22:29 2.8 °C -1.1 °C 1024.3 hPa Calm     76% 0 mm
22:34 2.6 °C -1.1 °C 1024.3 hPa Calm     77% 0 mm
22:39 2.4 °C -1 °C 1024.3 hPa Calm     78% 0 mm
22:44 2.3 °C -0.9 °C 1024.3 hPa Calm     79% 0 mm
22:49 2.3 °C -0.9 °C 1024.3 hPa Calm     79% 0 mm
22:54 2.3 °C -0.8 °C 1024.3 hPa Calm     80% 0 mm
22:59 2.3 °C -0.8 °C 1024.3 hPa Calm     80% 0 mm
23:04 2.3 °C -0.6 °C 1024.3 hPa Calm     81% 0 mm
23:09 2.4 °C -0.6 °C 1024.6 hPa Calm     81% 0 mm
23:14 2.4 °C -0.5 °C 1024.3 hPa Calm     81% 0 mm
23:19 2.5 °C -0.4 °C 1024.3 hPa Calm     81% 0 mm
23:24 2.6 °C -0.4 °C 1024.6 hPa Calm     81% 0 mm
23:29 2.7 °C -0.1 °C 1024.6 hPa Calm     82% 0 mm
23:34 2.7 °C -0.1 °C 1024.6 hPa Calm     82% 0 mm
23:39 2.7 °C -0.1 °C 1024.6 hPa Calm     82% 0 mm
23:44 2.8 °C 0 °C 1024.6 hPa Calm     82% 0 mm
23:54 2.9 °C 0.3 °C 1024.6 hPa Calm     83% 0 mm
23:59 3.1 °C 0.3 °C 1024.6 hPa Calm     82% 0 mm
Buffalo, New York, USA
Compliments of Weather Underground - 2.5 mb